Terminal Aerodrome Forecast
Issued by NWS

Home | Current Version | Previous Version | Text Only | Print | Product List | Glossary On
Versions: 1 2 3 4 5 6 7 8 9 10 11 12 13 14 15 16 17 18 19 20 21 22 23 24
098
FTUS44 KLZK 200520
TAFHRO
TAF
KHRO 200520Z 2006/2106 18005KT P6SM SCT250
     FM201000 16005KT 5SM BR OVC015
      TEMPO 2010/2014 2SM BR OVC005
     FM201600 15008KT P6SM BKN020
     FM201800 18010G18KT P6SM BKN250=

USA.gov is the U.S. government's official web portal to all federal, state and local government web resources and services.